Time;durP1;ratioP1;P1;durP2;ratioP2;P2;SDS_P1;SDS_P2;PMS_P1;PMS_P2;Temp;Humidity;BMP_temperature;BMP_pressure;BME280_temperature;BME280_humidity;BME280_pressure;Samples;Min_cycle;Max_cycle;Signal;HPM_P1;HPM_P2
2022/04/22 00:00:45;;;;;;;4.03;2.17;;;;;;;4.86;62.01;102215.41;5072012;28;20052;-70
2022/04/22 00:03:10;;;;;;;4.00;2.30;;;;;;;4.86;62.18;102218.91;5071980;28;20419;-70
2022/04/22 00:05:36;;;;;;;4.53;2.33;;;;;;;4.83;62.30;102215.59;5072079;28;20381;-68
2022/04/22 00:08:02;;;;;;;6.67;2.23;;;;;;;4.79;62.08;102214.91;5071725;28;20066;-68
2022/04/22 00:10:29;;;;;;;3.60;2.27;;;;;;;4.78;62.47;102207.94;5071737;28;20219;-68
2022/04/22 00:12:54;;;;;;;4.73;2.10;;;;;;;4.83;62.44;102219.06;5071989;28;20742;-69
2022/04/22 00:15:20;;;;;;;2.33;2.00;;;;;;;4.82;62.60;102214.75;5071995;28;20274;-69
2022/04/22 00:17:46;;;;;;;8.30;2.13;;;;;;;4.78;62.47;102217.66;5072449;28;20036;-68
2022/04/22 00:20:13;;;;;;;8.60;2.87;;;;;;;4.83;62.05;102215.59;5072066;28;20641;-67
2022/04/22 00:22:40;;;;;;;7.37;2.30;;;;;;;4.77;61.83;102200.97;5071523;28;20278;-67
2022/04/22 00:25:10;;;;;;;6.80;3.10;;;;;;;4.82;62.49;102209.47;5071572;28;20271;-67
2022/04/22 00:27:38;;;;;;;4.43;2.30;;;;;;;4.76;62.54;102203.69;5071548;28;20263;-66
2022/04/22 00:30:08;;;;;;;5.63;2.50;;;;;;;4.74;62.76;102203.78;5071543;28;20271;-67
2022/04/22 00:32:34;;;;;;;9.30;2.30;;;;;;;4.68;63.36;102190.13;5071037;28;20267;-69
2022/04/22 00:35:02;;;;;;;8.00;2.50;;;;;;;4.66;62.77;102193.69;5070735;28;20796;-66
2022/04/22 00:37:29;;;;;;;3.83;2.65;;;;;;;4.64;63.49;102200.84;5070204;28;20385;-66
2022/04/22 00:39:54;;;;;;;6.00;2.67;;;;;;;4.63;63.40;102193.03;5070316;28;20048;-67
2022/04/22 00:42:20;;;;;;;5.13;2.37;;;;;;;4.64;63.22;102200.84;5069865;28;20093;-65
2022/04/22 00:44:46;;;;;;;3.37;2.33;;;;;;;4.66;62.95;102195.47;5071172;28;20032;-66
2022/04/22 00:47:11;;;;;;;3.77;2.37;;;;;;;4.66;63.47;102204.25;5074635;28;20036;-65
2022/04/22 00:49:37;;;;;;;3.20;2.53;;;;;;;4.66;63.53;102192.84;5075649;28;20518;-66
2022/04/22 00:52:04;;;;;;;6.00;2.23;;;;;;;4.63;63.37;102193.03;5075706;28;20047;-65
2022/04/22 00:54:30;;;;;;;7.87;2.93;;;;;;;4.63;63.51;102193.03;5074701;28;20056;-68
2022/04/22 00:56:56;;;;;;;4.57;2.50;;;;;;;4.56;63.76;102181.94;5075863;28;20308;-65
2022/04/22 00:59:23;;;;;;;4.97;2.40;;;;;;;4.57;64.07;102183.66;5075656;28;20258;-67
2022/04/22 01:01:48;;;;;;;5.13;3.00;;;;;;;4.58;63.74;102193.25;5075835;28;20040;-65
2022/04/22 01:09:49;;;;;;;5.27;2.30;;;;;;;4.50;63.73;102182.31;5075054;28;20764;-64
2022/04/22 01:12:16;;;;;;;5.20;2.57;;;;;;;4.53;63.89;102182.13;5075518;28;20266;-66
2022/04/22 01:14:41;;;;;;;5.40;2.87;;;;;;;4.55;63.92;102185.53;5075007;28;20295;-66
2022/04/22 01:17:08;;;;;;;4.30;2.40;;;;;;;4.55;64.33;102187.31;5075228;28;20658;-65
2022/04/22 01:19:34;;;;;;;6.47;2.63;;;;;;;4.49;64.57;102180.63;5075686;28;20077;-65
2022/04/22 01:22:02;;;;;;;3.60;1.97;;;;;;;4.46;64.59;102186.06;5074864;28;20283;-66
2022/04/22 01:24:28;;;;;;;4.73;2.50;;;;;;;4.42;64.79;102186.34;5074400;28;20278;-67
2022/04/22 01:26:55;;;;;;;3.50;2.73;;;;;;;4.43;64.76;102188.88;5075328;28;20279;-66
2022/04/22 01:29:21;;;;;;;7.23;3.30;;;;;;;4.39;65.19;102186.53;5074813;28;20634;-65
2022/04/22 01:31:47;;;;;;;4.47;3.00;;;;;;;4.40;65.08;102181.16;5074851;28;20270;-65
2022/04/22 01:34:13;;;;;;;6.00;2.70;;;;;;;4.36;65.84;102184.91;5075317;28;20040;-66
2022/04/22 01:36:38;;;;;;;10.13;3.03;;;;;;;4.34;65.68;102178.88;5075023;28;20123;-64
2022/04/22 01:39:04;;;;;;;6.30;3.10;;;;;;;4.32;65.28;102172.81;5074611;28;20518;-66
2022/04/22 01:41:29;;;;;;;6.03;3.10;;;;;;;4.33;65.75;102179.78;5073576;28;20128;-65
2022/04/22 01:43:55;;;;;;;6.00;3.20;;;;;;;4.27;65.82;102170.44;5074714;28;20071;-65
2022/04/22 01:46:21;;;;;;;5.63;2.83;;;;;;;4.25;65.91;102169.69;5074538;28;20476;-66
2022/04/22 01:48:47;;;;;;;4.23;2.60;;;;;;;4.24;66.23;102178.53;5074559;28;20371;-65
2022/04/22 01:51:12;;;;;;;6.23;4.10;;;;;;;4.27;66.00;102182.78;5074272;28;20044;-65
2022/04/22 01:53:38;;;;;;;11.33;3.60;;;;;;;4.19;65.96;102183.22;5074201;28;20078;-64
2022/04/22 01:56:04;;;;;;;9.30;3.63;;;;;;;4.21;66.24;102193.69;5074383;28;20108;-65
2022/04/22 01:58:29;;;;;;;7.07;3.30;;;;;;;4.15;66.53;102186.97;5073662;28;20487;-65
2022/04/22 02:00:55;;;;;;;10.60;3.07;;;;;;;4.15;66.62;102180.84;5072885;28;20308;-66
2022/04/22 02:03:21;;;;;;;12.03;3.30;;;;;;;4.18;66.81;102185.94;5074364;28;20040;-64
2022/04/22 02:05:46;;;;;;;7.03;3.17;;;;;;;4.06;66.60;102170.84;5073997;28;20032;-66
2022/04/22 02:08:12;;;;;;;6.67;3.33;;;;;;;4.02;66.10;102154.31;5073908;28;20040;-65
2022/04/22 02:10:38;;;;;;;9.47;3.30;;;;;;;4.15;66.53;102178.22;5074368;28;20040;-65
2022/04/22 02:13:05;;;;;;;7.27;2.90;;;;;;;4.15;67.19;102181.69;5073948;28;20287;-66
2022/04/22 02:15:30;;;;;;;10.87;3.83;;;;;;;4.14;66.97;102179.16;5074842;28;20263;-66
2022/04/22 02:17:56;;;;;;;14.37;3.27;;;;;;;4.11;67.02;102179.31;5074656;28;20757;-64
2022/04/22 02:20:25;;;;;;;10.50;3.20;;;;;;;4.13;66.34;102180.94;5073998;28;20056;-64
2022/04/22 02:22:54;;;;;;;10.33;4.50;;;;;;;4.09;66.69;102168.00;5074595;28;20129;-65
2022/04/22 02:25:20;;;;;;;7.57;3.63;;;;;;;4.11;66.53;102169.63;5074613;28;20357;-64
2022/04/22 02:30:30;;;;;;;11.00;3.93;;;;;;;4.06;66.44;102155.00;5074999;28;20028;-64
2022/04/22 02:32:56;;;;;;;12.40;5.67;;;;;;;4.10;66.43;102156.53;5072903;28;20293;-64
2022/04/22 02:35:21;;;;;;;16.87;5.57;;;;;;;4.10;66.81;102167.94;5074311;28;20037;-66
2022/04/22 02:37:51;;;;;;;17.63;8.20;;;;;;;4.13;66.14;102169.53;5074092;28;20033;-64
2022/04/22 02:46:11;;;;;;;14.63;6.73;;;;;;;4.18;66.34;102159.56;5074792;28;20452;-64
2022/04/22 02:48:36;;;;;;;11.40;6.67;;;;;;;4.16;65.81;102161.44;5074003;28;20309;-63
2022/04/22 02:51:02;;;;;;;11.83;6.93;;;;;;;4.17;66.02;102163.16;5074346;28;20352;-66
2022/04/22 02:53:27;;;;;;;12.90;6.43;;;;;;;4.23;66.27;102175.97;5073239;28;20038;-65
2022/04/22 02:55:53;;;;;;;12.50;6.33;;;;;;;4.23;66.05;102166.28;5071754;28;20501;-67
2022/04/22 02:58:19;;;;;;;11.07;5.70;;;;;;;4.18;65.58;102152.50;5073161;28;20043;-64
2022/04/22 03:00:44;;;;;;;9.07;5.27;;;;;;;4.28;65.57;102164.22;5071722;28;20408;-66
2022/04/22 03:03:11;;;;;;;10.07;5.53;;;;;;;4.29;66.12;102162.44;5072853;28;20058;-64
2022/04/22 03:05:37;;;;;;;16.00;6.83;;;;;;;4.27;65.77;102153.75;5072854;28;20488;-64
2022/04/22 03:08:03;;;;;;;11.70;5.33;;;;;;;4.39;65.69;102174.19;5072781;28;20282;-65
2022/04/22 03:10:29;;;;;;;8.50;4.50;;;;;;;4.41;65.76;102168.81;5070460;28;20040;-67
2022/04/22 03:12:55;;;;;;;7.40;4.27;;;;;;;4.41;65.61;102176.72;5072569;28;20322;-66
2022/04/22 03:15:21;;;;;;;6.80;4.50;;;;;;;4.43;65.76;102175.69;5072740;28;20691;-66
2022/04/22 03:17:48;;;;;;;11.40;4.00;;;;;;;4.43;65.26;102169.56;5072757;28;20106;-67
2022/04/22 03:20:15;;;;;;;11.63;5.43;;;;;;;4.44;65.46;102161.56;5072635;28;20051;-67
2022/04/22 03:22:43;;;;;;;;;;;;;;;4.55;65.83;102185.53;5073022;28;20297;-66
2022/04/22 03:25:09;;;;;;;9.50;5.40;;;;;;;4.55;65.95;102171.50;5072438;28;20426;-66
2022/04/22 03:27:34;;;;;;;7.17;4.23;;;;;;;4.57;65.33;102166.97;5072893;28;20029;-66
2022/04/22 03:30:02;;;;;;;9.77;4.00;;;;;;;4.55;65.02;102151.22;5072563;28;20408;-66
2022/04/22 03:32:30;;;;;;;6.07;4.20;;;;;;;5.07;63.82;102165.75;5072342;28;20032;-65
2022/04/22 03:34:55;;;;;;;9.43;4.17;;;;;;;5.40;62.62;102162.84;5072745;28;20718;-65
2022/04/22 03:37:21;;;;;;;6.13;3.80;;;;;;;6.01;60.75;102175.72;5072155;28;20278;-65
2022/04/22 03:39:46;;;;;;;6.47;3.83;;;;;;;6.79;58.01;102173.22;5071962;28;20058;-64
2022/04/22 03:42:12;;;;;;;17.17;4.37;;;;;;;7.42;56.88;102172.38;5072267;28;20043;-66
2022/04/22 03:44:37;;;;;;;8.63;4.70;;;;;;;8.00;54.34;102173.53;5072084;28;20033;-64
2022/04/22 03:47:03;;;;;;;13.90;4.23;;;;;;;8.46;52.90;102176.34;5072080;28;20115;-66
2022/04/22 03:49:30;;;;;;;12.30;5.60;;;;;;;8.55;52.46;102169.47;5072292;28;20037;-67
2022/04/22 03:51:56;;;;;;;10.07;4.10;;;;;;;8.71;51.97;102158.56;5072151;28;20032;-70
2022/04/22 03:54:24;;;;;;;10.10;4.17;;;;;;;8.75;51.61;102166.19;5071877;28;20040;-73
2022/04/22 03:59:41;;;;;;;6.60;3.33;;;;;;;8.04;53.12;102167.88;5048236;28;20042;-69
2022/04/22 04:02:07;;;;;;;6.73;3.77;;;;;;;7.87;53.69;102162.97;5071783;28;20028;-70
2022/04/22 04:04:33;;;;;;;11.90;4.20;;;;;;;7.38;55.09;102160.31;5071994;28;20067;-69
2022/04/22 04:06:59;;;;;;;6.83;3.50;;;;;;;6.87;56.99;102170.88;5072336;28;20480;-70
2022/04/22 04:17:38;;;;;;;7.67;4.63;;;;;;;5.71;60.14;102170.56;5071723;28;20460;-65
2022/04/22 04:25:36;;;;;;;11.17;4.57;;;;;;;5.47;61.23;102154.44;5071602;28;20043;-73
2022/04/22 04:28:02;;;;;;;9.07;5.83;;;;;;;5.48;61.28;102160.56;5071844;28;20768;-71
2022/04/22 04:30:28;;;;;;;8.73;4.40;;;;;;;5.46;61.62;102152.75;5071674;28;20519;-67
2022/04/22 04:32:54;;;;;;;9.30;5.00;;;;;;;5.44;61.37;102159.91;5071570;28;20259;-68
2022/04/22 04:35:19;;;;;;;19.17;4.93;;;;;;;5.43;61.95;102154.72;5071734;28;20435;-67
2022/04/22 04:37:44;;;;;;;10.20;4.70;;;;;;;5.52;61.81;102159.47;5071379;28;20492;-70
2022/04/22 04:40:10;;;;;;;12.10;4.70;;;;;;;5.50;61.42;102154.28;5071466;28;20507;-65
2022/04/22 04:42:37;;;;;;;13.23;4.77;;;;;;;5.59;61.51;102163.41;5071604;28;20064;-70
2022/04/22 04:45:04;;;;;;;11.23;5.30;;;;;;;5.56;61.76;102160.97;5071847;28;20314;-67
2022/04/22 04:47:31;;;;;;;10.33;4.40;;;;;;;5.55;61.42;102161.91;5071223;28;20036;-68
2022/04/22 04:49:56;;;;;;;15.10;4.60;;;;;;;5.60;61.47;102151.88;5071490;28;20353;-66
2022/04/22 04:52:22;;;;;;;11.10;5.83;;;;;;;5.56;61.68;102147.75;5071790;28;20306;-68
2022/04/22 04:54:50;;;;;;;11.77;5.90;;;;;;;5.65;61.42;102156.88;5071548;28;20070;-69
2022/04/22 04:57:15;;;;;;;13.23;5.07;;;;;;;5.72;61.17;102151.09;5071324;28;20048;-68
2022/04/22 04:59:42;;;;;;;13.00;5.37;;;;;;;5.75;60.83;102148.25;5071335;28;20036;-67
2022/04/22 05:02:07;;;;;;;10.83;5.30;;;;;;;5.86;60.19;102153.72;5071179;28;20509;-66
2022/04/22 05:04:33;;;;;;;11.73;4.73;;;;;;;5.99;60.48;102150.31;5071074;28;20266;-69
2022/04/22 05:06:58;;;;;;;10.57;4.80;;;;;;;6.12;59.99;102151.25;5071244;28;20147;-68
2022/04/22 05:09:24;;;;;;;14.00;5.47;;;;;;;6.28;59.47;102156.34;5071275;28;20411;-67
2022/04/22 05:11:49;;;;;;;14.33;5.00;;;;;;;6.40;58.88;102153.78;5071647;28;20037;-68
2022/04/22 05:14:15;;;;;;;9.23;5.10;;;;;;;6.50;58.84;102148.69;5069769;28;20530;-67
2022/04/22 05:16:40;;;;;;;11.07;5.20;;;;;;;6.53;58.15;102146.69;5071191;28;20036;-68
2022/04/22 05:19:06;;;;;;;13.67;4.40;;;;;;;6.60;57.80;102155.06;5070922;28;20037;-67
2022/04/22 05:21:32;;;;;;;11.73;5.37;;;;;;;6.72;58.15;102148.13;5074544;28;20139;-67
2022/04/22 05:23:57;;;;;;;10.67;5.00;;;;;;;6.82;57.90;102141.22;5069406;28;20376;-66
2022/04/22 05:26:24;;;;;;;14.47;4.50;;;;;;;6.88;57.51;102151.41;5071921;28;20070;-66
2022/04/22 05:28:49;;;;;;;13.87;5.80;;;;;;;6.97;57.54;102156.09;5070950;28;20032;-65
2022/04/22 05:33:59;;;;;;;19.03;5.97;;;;;;;7.12;57.58;102144.41;5073741;28;20086;-66
2022/04/22 05:36:24;;;;;;;7.27;4.77;;;;;;;7.09;57.31;102118.13;5074827;28;20446;-65
2022/04/22 05:38:52;;;;;;;16.70;5.83;;;;;;;7.15;56.66;102123.00;5074639;28;20231;-62
2022/04/22 05:41:18;;;;;;;16.85;6.28;;;;;;;7.37;56.06;102143.56;5074710;28;20039;-62
2022/04/22 05:43:44;;;;;;;13.53;5.50;;;;;;;7.44;56.30;102141.31;5074379;28;20058;-63
2022/04/22 05:46:09;;;;;;;12.00;5.27;;;;;;;7.53;56.00;102131.88;5074377;28;20032;-64
2022/04/22 05:48:35;;;;;;;12.47;5.00;;;;;;;7.51;56.48;102136.41;5074344;28;20048;-63
2022/04/22 05:51:00;;;;;;;8.83;4.70;;;;;;;7.55;55.94;102130.81;5074207;28;20508;-65
2022/04/22 05:53:26;;;;;;;15.63;5.57;;;;;;;7.60;56.32;102131.31;5074097;28;20067;-65
2022/04/22 05:55:52;;;;;;;10.73;5.27;;;;;;;7.36;55.70;102085.34;5074426;28;20036;-65
2022/04/22 05:58:17;;;;;;;14.10;5.53;;;;;;;7.67;55.42;102135.22;5074070;28;20036;-67
2022/04/22 06:00:43;;;;;;;10.03;5.30;;;;;;;7.58;55.61;102108.53;5073953;28;20391;-67
2022/04/22 06:03:08;;;;;;;11.87;5.00;;;;;;;7.76;55.19;102126.59;5073789;28;20217;-68
2022/04/22 06:05:35;;;;;;;15.17;4.97;;;;;;;7.80;55.73;102124.56;5073701;28;20097;-66
2022/04/22 06:10:51;;;;;;;18.43;5.10;;;;;;;7.91;54.87;102127.28;5073900;28;20040;-66
2022/04/22 06:13:17;;;;;;;17.93;6.90;;;;;;;7.97;54.81;102118.03;5074541;28;20043;-67
2022/04/22 06:15:43;;;;;;;22.43;6.63;;;;;;;8.13;55.42;102128.38;5076036;28;20040;-69
2022/04/22 06:18:09;;;;;;;20.40;5.77;;;;;;;8.27;54.62;102136.16;5077560;28;20037;-71
2022/04/22 06:20:36;;;;;;;12.93;5.03;;;;;;;8.34;54.19;102127.63;5074601;28;20059;-70
2022/04/22 06:23:03;;;;;;;11.50;6.37;;;;;;;8.45;54.24;102132.16;5075754;28;20040;-66
2022/04/22 06:25:29;;;;;;;11.83;4.97;;;;;;;8.51;54.04;102121.06;5073352;28;20068;-67
2022/04/22 06:27:56;;;;;;;11.13;5.00;;;;;;;8.61;53.51;102113.25;5074163;28;20040;-65
2022/04/22 06:30:22;;;;;;;12.37;5.33;;;;;;;8.59;53.18;102108.06;5074836;28;20089;-67
2022/04/22 06:32:50;;;;;;;15.47;5.57;;;;;;;8.70;53.25;102115.22;5073835;28;20033;-68
2022/04/22 06:35:18;;;;;;;18.05;5.35;;;;;;;8.78;53.45;102112.81;5055744;28;20040;-71
2022/04/22 06:37:47;;;;;;;16.27;5.13;;;;;;;8.87;53.61;102117.41;5055455;28;20102;-69
2022/04/22 06:45:47;;;;;;;15.50;6.00;;;;;;;9.14;52.97;102114.41;5073263;28;20036;-61
2022/04/22 06:48:20;;;;;;;22.00;6.87;;;;;;;9.24;52.68;102119.84;5073967;28;20058;-65
2022/04/22 06:50:50;;;;;;;19.20;5.63;;;;;;;9.29;52.31;102113.22;5073311;28;20129;-63
2022/04/22 06:53:18;;;;;;;16.27;5.60;;;;;;;9.32;52.01;102107.66;5073791;28;20033;-65
2022/04/22 06:55:46;;;;;;;23.25;6.20;;;;;;;9.40;51.38;102109.72;5074566;28;20113;-64
2022/04/22 06:58:17;;;;;;;22.57;6.77;;;;;;;9.51;51.63;102107.03;5055583;28;20532;-63
2022/04/22 07:00:44;;;;;;;17.13;6.73;;;;;;;9.57;51.56;102109.22;5039183;28;20490;-64
2022/04/22 07:03:11;;;;;;;32.33;7.60;;;;;;;9.66;51.98;102112.09;5073491;28;20429;-67
2022/04/22 07:05:39;;;;;;;11.47;6.30;;;;;;;9.65;50.79;102103.25;5066837;28;20058;-71
2022/04/22 07:08:07;;;;;;;25.73;6.43;;;;;;;9.60;51.15;102095.66;5078366;28;20041;-68
2022/04/22 07:10:37;;;;;;;24.42;6.32;;;;;;;9.78;51.27;102108.44;5056692;28;20029;-68
2022/04/22 07:13:04;;;;;;;13.80;6.37;;;;;;;9.78;50.75;102082.66;5073684;28;20538;-68
2022/04/22 07:15:30;;;;;;;8.70;5.63;;;;;;;9.67;50.60;102047.28;5073873;28;20028;-67
2022/04/22 07:17:56;;;;;;;13.90;6.57;;;;;;;10.06;50.09;102091.03;5056027;28;20495;-66
2022/04/22 07:20:23;;;;;;;12.27;5.70;;;;;;;10.14;49.94;102093.94;5071862;28;20051;-69
2022/04/22 07:22:50;;;;;;;17.50;7.23;;;;;;;10.21;50.24;102095.16;5073444;28;20037;-65
2022/04/22 07:25:17;;;;;;;14.90;5.63;;;;;;;10.30;49.63;102096.19;5075200;28;20098;-68
2022/04/22 07:27:52;;;;;;;17.63;6.03;;;;;;;10.30;49.22;102082.88;5079969;28;20067;-76
2022/04/22 07:30:29;;;;;;;23.10;6.53;;;;;;;10.39;48.91;102092.75;5069312;28;20087;-77
2022/04/22 07:32:55;;;;;;;21.97;8.07;;;;;;;10.37;49.41;102079.56;5053364;28;20087;-69
2022/04/22 07:35:21;;;;;;;14.63;6.73;;;;;;;10.54;49.50;102094.13;5043607;28;20530;-73
2022/04/22 07:37:49;;;;;;;13.93;7.83;;;;;;;10.32;49.12;102054.28;5026996;28;20039;-66
2022/04/22 07:40:22;;;;;;;15.80;7.35;;;;;;;10.64;49.03;102088.84;5049860;28;20464;-68
2022/04/22 07:48:34;;;;;;;28.77;7.13;;;;;;;10.93;48.73;102081.03;5050912;28;20045;-67
2022/04/22 07:51:01;;;;;;;8.40;5.07;;;;;;;11.02;48.27;102077.59;5019245;28;20057;-67
2022/04/22 07:53:26;;;;;;;14.27;5.27;;;;;;;11.08;47.79;102080.56;5052718;28;20124;-73
2022/04/22 07:56:10;;;;;;;9.33;5.83;;;;;;;11.13;48.17;102077.47;5039952;28;20068;-71
2022/04/22 07:58:39;;;;;;;9.80;5.07;;;;;;;11.13;48.03;102067.66;5056182;28;20105;-69
2022/04/22 08:01:05;;;;;;;21.65;3.78;;;;;;;11.11;47.51;102069.63;5061481;28;20055;-66
2022/04/22 08:03:31;;;;;;;10.73;3.63;;;;;;;11.25;46.98;102088.88;5058608;28;20041;-73
2022/04/22 08:05:57;;;;;;;7.73;3.30;;;;;;;11.23;47.48;102080.16;5073135;28;20120;-69
2022/04/22 08:08:24;;;;;;;5.20;3.60;;;;;;;11.25;47.37;102080.88;5072042;28;20179;-70
2022/04/22 08:10:49;;;;;;;5.53;3.20;;;;;;;11.32;46.93;102082.06;5070464;28;20592;-71
2022/04/22 08:13:15;;;;;;;7.30;2.93;;;;;;;11.28;46.93;102072.63;5070726;28;20087;-68
2022/04/22 08:15:40;;;;;;;6.80;4.00;;;;;;;11.28;47.14;102073.47;5071941;28;20048;-68
2022/04/22 08:18:06;;;;;;;8.77;3.60;;;;;;;11.24;47.08;102058.69;5071658;28;20480;-65
2022/04/22 08:20:33;;;;;;;10.67;4.07;;;;;;;11.37;46.91;102070.00;5071375;28;20392;-68
2022/04/22 08:23:05;;;;;;;4.23;2.87;;;;;;;11.36;46.91;102057.63;5071023;28;20110;-67
2022/04/22 08:25:31;;;;;;;12.03;2.90;;;;;;;11.53;46.95;102060.59;5071836;28;20194;-71
2022/04/22 08:27:56;;;;;;;6.57;3.93;;;;;;;11.65;46.90;102051.53;5071236;28;20029;-63
2022/04/22 08:30:22;;;;;;;8.50;4.13;;;;;;;11.84;46.88;102064.06;5071608;28;20035;-64
2022/04/22 08:32:47;;;;;;;4.73;3.33;;;;;;;11.85;46.01;102063.91;5071818;28;20472;-64
2022/04/22 08:35:13;;;;;;;30.83;4.53;;;;;;;11.89;46.01;102061.84;5072046;28;20040;-65
2022/04/22 08:37:42;;;;;;;9.73;3.43;;;;;;;11.98;45.90;102061.84;5071916;28;20029;-64
2022/04/22 08:40:08;;;;;;;5.50;3.30;;;;;;;12.01;45.11;102061.56;5072063;28;20037;-65
2022/04/22 08:42:38;;;;;;;4.37;2.77;;;;;;;11.99;44.71;102050.16;5072001;28;20098;-66
2022/04/22 08:45:08;;;;;;;5.87;3.20;;;;;;;12.05;45.03;102054.09;5071775;28;20036;-66
2022/04/22 08:50:19;;;;;;;6.17;2.63;;;;;;;12.07;44.44;102047.63;5071429;28;20115;-69
2022/04/22 08:52:57;;;;;;;4.43;2.90;;;;;;;12.02;44.48;102020.50;5072052;28;20067;-69
2022/04/22 08:55:26;;;;;;;5.60;2.70;;;;;;;12.22;43.91;102036.53;5071443;28;20566;-67
2022/04/22 08:57:57;;;;;;;;;;;;;;;12.36;44.05;102041.41;5072435;28;20032;-66
2022/04/22 09:00:22;;;;;;;8.10;2.93;;;;;;;12.38;43.04;102034.09;5071474;28;19922;-72
2022/04/22 09:02:50;;;;;;;11.30;3.73;;;;;;;12.32;42.79;102010.63;5071838;28;20044;-69
2022/04/22 09:05:16;;;;;;;4.17;2.83;;;;;;;12.54;42.63;102039.72;5071445;28;20094;-70
2022/04/22 09:07:43;;;;;;;5.33;2.47;;;;;;;12.61;42.29;102042.63;5071891;28;20037;-69
2022/04/22 09:10:10;;;;;;;7.10;4.13;;;;;;;12.66;41.64;102043.88;5075742;28;20032;-66
2022/04/22 09:12:35;;;;;;;4.07;2.63;;;;;;;12.70;42.08;102034.59;5075948;28;20040;-68
2022/04/22 09:15:01;;;;;;;3.63;2.13;;;;;;;12.72;40.61;102037.09;5076226;28;20097;-68
2022/04/22 09:17:32;;;;;;;3.20;2.40;;;;;;;12.75;40.38;102028.00;5075330;28;20070;-64
2022/04/22 09:19:58;;;;;;;4.27;2.13;;;;;;;12.76;39.52;102021.66;5074891;28;20040;-65
2022/04/22 09:22:26;;;;;;;6.13;2.37;;;;;;;12.86;39.87;102027.78;5074054;28;20059;-62
2022/04/22 09:24:59;;;;;;;4.50;2.67;;;;;;;12.89;39.72;102027.50;5075043;28;20067;-64
2022/04/22 09:27:44;;;;;;;3.80;2.03;;;;;;;12.93;40.28;102034.22;5074631;28;20445;-65
2022/04/22 09:30:12;;;;;;;9.50;3.50;;;;;;;12.91;40.12;102014.81;5074702;28;20514;-68
2022/04/22 09:32:40;;;;;;;9.93;3.20;;;;;;;12.98;39.61;102010.56;5075020;28;20048;-66
2022/04/22 09:35:16;;;;;;;6.17;2.80;;;;;;;13.14;40.47;102015.28;5074771;28;20039;-65
2022/04/22 09:43:25;;;;;;;4.73;2.00;;;;;;;13.17;38.88;102023.88;5075276;28;20127;-67
2022/04/22 09:45:53;;;;;;;4.50;2.10;;;;;;;13.04;38.37;102012.66;5073546;28;20119;-66
2022/04/22 09:48:20;;;;;;;3.07;1.60;;;;;;;13.09;37.94;102005.03;5074575;28;20032;-68
2022/04/22 09:50:46;;;;;;;6.60;1.93;;;;;;;13.25;38.02;102015.94;5076167;28;20044;-71
2022/04/22 09:53:14;;;;;;;4.50;2.00;;;;;;;13.27;37.27;102005.94;5075807;28;20051;-72
2022/04/22 09:55:48;;;;;;;2.08;1.85;;;;;;;13.38;37.18;102012.94;5075362;28;20120;-73
2022/04/22 09:58:22;;;;;;;3.07;2.20;;;;;;;13.42;37.30;102000.94;5074569;28;20067;-67
2022/04/22 10:00:54;;;;;;;3.97;2.00;;;;;;;13.47;37.53;102008.50;5074287;28;20447;-69
2022/04/22 10:03:21;;;;;;;5.30;2.40;;;;;;;13.43;37.84;101999.09;5074213;28;20068;-68
2022/04/22 10:05:50;;;;;;;3.90;2.03;;;;;;;13.51;38.25;101996.50;5074069;28;20460;-68
2022/04/22 10:08:18;;;;;;;10.47;2.70;;;;;;;13.55;37.92;102003.22;5074395;28;20032;-67
2022/04/22 10:10:44;;;;;;;5.85;2.60;;;;;;;13.59;38.04;101996.59;5074141;28;20067;-69
2022/04/22 10:13:17;;;;;;;6.07;2.47;;;;;;;13.65;37.18;102014.72;5074279;28;20056;-65
2022/04/22 10:15:45;;;;;;;4.07;2.80;;;;;;;13.68;37.35;102005.53;5073967;28;20043;-69
2022/04/22 10:18:12;;;;;;;5.87;2.93;;;;;;;13.70;37.69;101996.34;5073719;28;20037;-67
2022/04/22 10:20:38;;;;;;;4.37;2.70;;;;;;;13.76;37.40;102000.25;5073701;28;20038;-66
2022/04/22 10:23:04;;;;;;;7.67;2.30;;;;;;;13.80;37.24;101989.06;5073670;28;20492;-68
2022/04/22 10:25:31;;;;;;;4.40;2.10;;;;;;;13.94;36.54;101993.91;5074225;28;20047;-66
2022/04/22 10:28:03;;;;;;;5.57;2.33;;;;;;;13.94;35.95;101999.25;5073341;28;20044;-66
2022/04/22 10:30:29;;;;;;;11.80;4.13;;;;;;;13.73;36.57;101979.16;5073256;28;20028;-66
2022/04/22 10:32:56;;;;;;;4.97;2.10;;;;;;;13.76;36.68;101995.75;5073546;28;20158;-66
2022/04/22 10:35:23;;;;;;;9.40;3.13;;;;;;;13.81;36.50;101990.75;5073460;28;20037;-68
2022/04/22 10:37:49;;;;;;;8.73;1.97;;;;;;;13.71;36.88;101987.34;5073403;28;20041;-69
2022/04/22 10:40:23;;;;;;;8.30;2.83;;;;;;;13.80;36.13;101978.38;5073285;28;20048;-66
2022/04/22 10:42:50;;;;;;;4.47;2.30;;;;;;;13.90;36.26;101971.09;5073462;28;20035;-68
2022/04/22 10:48:20;;;;;;;5.47;2.13;;;;;;;14.03;35.93;101968.03;5073253;28;20040;-66
2022/04/22 10:51:02;;;;;;;6.03;2.50;;;;;;;14.03;35.77;101976.06;5073106;28;20090;-66
2022/04/22 10:53:33;;;;;;;6.03;2.60;;;;;;;13.65;36.07;101913.00;5073034;28;20089;-66
2022/04/22 10:56:23;;;;;;;5.50;3.00;;;;;;;14.08;36.03;101959.50;5073046;28;20044;-65
2022/04/22 10:59:21;;;;;;;12.23;3.13;;;;;;;14.06;36.12;101969.53;5073172;28;20036;-66
2022/04/22 11:01:47;;;;;;;8.87;2.57;;;;;;;13.98;36.21;101958.78;5072922;28;20032;-65
2022/04/22 11:04:20;;;;;;;10.60;3.30;;;;;;;14.03;36.55;101954.63;5073282;28;20074;-63
2022/04/22 11:06:46;;;;;;;5.67;3.10;;;;;;;14.17;36.54;101954.06;5072962;28;20241;-64
2022/04/22 11:09:24;;;;;;;7.53;2.70;;;;;;;14.18;36.18;101938.84;5072942;28;20143;-62
2022/04/22 11:11:50;;;;;;;12.60;4.47;;;;;;;14.27;36.27;101943.25;5072768;28;20037;-65
2022/04/22 11:14:20;;;;;;;8.27;2.67;;;;;;;14.26;36.02;101944.25;5072484;28;20040;-65
2022/04/22 11:16:46;;;;;;;9.77;3.30;;;;;;;14.24;36.53;101935.53;5072639;28;20514;-63
2022/04/22 11:19:17;;;;;;;13.53;3.57;;;;;;;14.32;37.10;101937.41;5072735;28;20071;-65
2022/04/22 11:21:44;;;;;;;8.50;3.53;;;;;;;14.35;36.86;101942.44;5073100;28;20037;-62
2022/04/22 11:24:17;;;;;;;11.80;3.50;;;;;;;14.36;36.82;101933.41;5073156;28;20056;-65
2022/04/22 11:26:47;;;;;;;11.30;3.97;;;;;;;14.37;36.57;101933.25;5071653;28;20060;-65
2022/04/22 11:29:15;;;;;;;8.63;3.87;;;;;;;14.42;36.73;101938.13;5072722;28;20048;-67
2022/04/22 11:32:05;;;;;;;12.40;3.10;;;;;;;14.40;36.67;101940.97;5071427;28;20040;-67
2022/04/22 11:34:58;;;;;;;9.67;3.30;;;;;;;14.35;36.73;101940.59;5057961;28;20415;-65
2022/04/22 11:37:24;;;;;;;13.93;3.40;;;;;;;14.25;36.94;101931.84;5072084;28;20037;-66
2022/04/22 11:39:50;;;;;;;4.30;2.73;;;;;;;14.18;36.50;101937.00;5071645;28;20468;-65
2022/04/22 11:42:20;;;;;;;5.90;3.00;;;;;;;14.06;36.39;101922.16;5071774;28;20508;-68
2022/04/22 11:45:09;;;;;;;3.47;2.17;;;;;;;14.16;36.31;101932.78;5071732;28;20097;-66
2022/04/22 11:47:35;;;;;;;4.27;2.43;;;;;;;14.23;35.61;101925.81;5072090;28;20399;-64
2022/04/22 11:50:01;;;;;;;2.40;1.60;;;;;;;14.31;35.44;101933.03;5072223;28;20032;-67
2022/04/22 11:52:29;;;;;;;8.33;2.00;;;;;;;14.36;35.20;101931.56;5072303;28;20044;-65
2022/04/22 11:55:03;;;;;;;10.70;2.87;;;;;;;14.29;35.45;101929.69;5072148;28;20595;-64
2022/04/22 11:57:39;;;;;;;9.83;2.10;;;;;;;14.38;35.30;101926.03;5071912;28;20411;-64
2022/04/22 12:05:41;;;;;;;6.63;2.40;;;;;;;14.52;35.37;101925.50;5071895;28;20036;-64
2022/04/22 12:08:10;;;;;;;6.97;3.20;;;;;;;14.45;35.45;101927.94;5071623;28;20068;-61
2022/04/22 12:10:35;;;;;;;6.70;1.77;;;;;;;14.39;36.30;101915.16;5071979;28;20032;-63
2022/04/22 12:13:03;;;;;;;5.40;2.47;;;;;;;14.34;35.63;101917.47;5090524;28;20035;-71
2022/04/22 12:15:29;;;;;;;6.73;1.87;;;;;;;14.40;35.73;101891.88;5091763;28;20052;-75
2022/04/22 12:17:56;;;;;;;5.37;1.90;;;;;;;14.56;35.74;101905.41;5084001;28;20040;-63
2022/04/22 12:20:25;;;;;;;7.10;2.23;;;;;;;14.64;34.40;101904.59;5071714;28;20044;-64
2022/04/22 12:22:52;;;;;;;2.65;1.23;;;;;;;14.56;33.44;101892.00;5071741;28;20052;-66
2022/04/22 12:25:21;;;;;;;5.97;1.33;;;;;;;14.38;33.16;101886.69;5071877;28;20127;-64
2022/04/22 12:28:07;;;;;;;7.83;1.80;;;;;;;14.36;33.30;101896.72;5071753;28;20037;-64
2022/04/22 12:30:40;;;;;;;9.57;2.10;;;;;;;14.32;34.33;101879.28;5071677;28;20498;-68
2022/04/22 12:33:08;;;;;;;5.90;1.70;;;;;;;14.35;32.95;101888.84;5071375;28;20395;-67